Time;durP1;ratioP1;P1;durP2;ratioP2;P2;SDS_P1;SDS_P2;PMS_P1;PMS_P2;Temp;Humidity;BMP_temperature;BMP_pressure;BME280_temperature;BME280_humidity;BME280_pressure;Samples;Min_cycle;Max_cycle;Signal;HPM_P1;HPM_P2
2022/04/19 00:01:16;;;;;;;12.93;7.88;;;8.00;99.90;;;;;;5034924;28;20029;-59
2022/04/19 00:03:42;;;;;;;17.02;7.60;;;7.80;99.90;;;;;;5031677;28;20490;-60
2022/04/19 00:06:07;;;;;;;12.25;7.15;;;7.70;99.90;;;;;;5034971;28;20032;-60
2022/04/19 00:08:35;;;;;;;18.00;8.05;;;7.70;99.90;;;;;;5034229;28;20116;-60
2022/04/19 00:11:01;;;;;;;15.45;7.60;;;7.90;99.90;;;;;;5033296;28;20143;-59
2022/04/19 00:13:28;;;;;;;13.27;6.93;;;7.80;99.90;;;;;;5034762;28;20030;-60
2022/04/19 00:15:55;;;;;;;13.73;7.93;;;7.70;99.90;;;;;;5033206;28;20056;-59
2022/04/19 00:18:21;;;;;;;14.38;7.85;;;7.80;99.90;;;;;;5030914;28;20025;-59
2022/04/19 00:20:49;;;;;;;13.60;8.05;;;7.90;99.90;;;;;;5036608;28;20096;-60
2022/04/19 00:23:15;;;;;;;11.88;7.13;;;7.80;99.90;;;;;;5034568;28;20064;-60
2022/04/19 00:25:43;;;;;;;12.82;6.97;;;7.80;99.90;;;;;;5034635;28;20088;-59
2022/04/19 00:28:09;;;;;;;10.50;6.05;;;7.80;99.90;;;;;;5034595;28;20055;-59
2022/04/19 00:30:35;;;;;;;15.40;7.30;;;7.50;99.90;;;;;;5030002;28;20055;-59
2022/04/19 00:33:01;;;;;;;18.52;7.22;;;7.40;99.90;;;;;;5036257;28;20029;-59
2022/04/19 00:35:28;;;;;;;12.52;6.55;;;7.50;99.90;;;;;;5034706;28;20021;-60
2022/04/19 00:37:54;;;;;;;13.18;6.75;;;7.30;99.90;;;;;;5034211;28;20057;-59
2022/04/19 00:40:20;;;;;;;12.55;6.57;;;7.20;99.90;;;;;;5034331;28;20029;-59
2022/04/19 00:42:47;;;;;;;13.63;7.80;;;7.30;99.90;;;;;;5031601;28;20554;-59
2022/04/19 00:45:13;;;;;;;20.38;7.78;;;7.10;99.90;;;;;;5033059;28;20486;-60
2022/04/19 00:47:40;;;;;;;19.17;8.18;;;7.10;99.90;;;;;;5033996;28;20041;-59
2022/04/19 00:50:07;;;;;;;10.88;7.15;;;7.10;99.90;;;;;;5032733;28;20052;-60
2022/04/19 00:52:34;;;;;;;14.40;7.20;;;7.10;99.90;;;;;;5034381;28;20036;-59
2022/04/19 00:55:01;;;;;;;14.38;7.93;;;7.00;99.90;;;;;;5033661;28;20095;-60
2022/04/19 00:57:27;;;;;;;15.05;8.65;;;7.00;99.90;;;;;;5030266;28;20029;-60
2022/04/19 00:59:55;;;;;;;15.65;8.73;;;6.90;99.90;;;;;;5036040;28;20025;-60
2022/04/19 01:02:22;;;;;;;14.57;8.85;;;7.00;99.90;;;;;;5034402;28;20025;-60
2022/04/19 01:04:49;;;;;;;13.07;8.30;;;7.00;99.90;;;;;;5032746;28;20033;-60
2022/04/19 01:07:18;;;;;;;14.43;8.40;;;6.90;99.90;;;;;;5034190;28;20025;-60
2022/04/19 01:09:45;;;;;;;13.73;8.70;;;6.80;99.90;;;;;;5031255;28;20414;-59
2022/04/19 01:14:57;;;;;;;13.23;8.43;;;6.90;99.90;;;;;;5035635;28;20122;-61
2022/04/19 01:17:24;;;;;;;14.35;7.80;;;7.10;99.90;;;;;;5033883;28;20026;-60
2022/04/19 01:19:51;;;;;;;14.73;8.20;;;6.90;99.90;;;;;;5033925;28;20041;-59
2022/04/19 01:22:16;;;;;;;11.80;7.95;;;6.80;99.90;;;;;;5033867;28;20009;-59
2022/04/19 01:24:43;;;;;;;15.93;8.07;;;6.70;99.90;;;;;;5029383;28;20030;-59
2022/04/19 01:27:09;;;;;;;18.00;8.55;;;6.50;99.90;;;;;;5033624;28;20033;-59
2022/04/19 01:29:36;;;;;;;15.85;7.82;;;6.60;99.90;;;;;;5036958;28;20049;-59
2022/04/19 01:32:03;;;;;;;12.68;7.68;;;6.60;99.90;;;;;;5037963;28;20080;-60
2022/04/19 01:34:29;;;;;;;15.52;8.88;;;6.60;99.90;;;;;;5037720;28;20383;-60
2022/04/19 01:36:55;;;;;;;15.43;9.15;;;6.80;99.90;;;;;;5036302;28;20102;-59
2022/04/19 01:42:08;;;;;;;9.52;7.55;;;6.70;99.90;;;;;;5047394;28;20028;-59
2022/04/19 01:44:36;;;;;;;16.73;7.63;;;6.60;99.90;;;;;;5037423;28;20437;-59
2022/04/19 01:47:02;;;;;;;11.45;7.63;;;6.50;99.90;;;;;;5037531;28;20208;-59
2022/04/19 01:49:28;;;;;;;12.95;7.57;;;6.60;99.90;;;;;;5037660;28;20517;-59
2022/04/19 01:51:54;;;;;;;13.27;7.50;;;6.60;99.90;;;;;;5036013;28;20029;-59
2022/04/19 01:54:19;;;;;;;14.80;8.80;;;6.50;99.90;;;;;;5034650;28;20112;-59
2022/04/19 01:56:45;;;;;;;14.82;8.02;;;6.60;99.90;;;;;;5039494;28;20068;-58
2022/04/19 01:59:12;;;;;;;10.82;7.78;;;6.80;99.90;;;;;;5037446;28;20049;-59
2022/04/19 02:01:38;;;;;;;13.70;7.90;;;6.90;99.90;;;;;;5037444;28;20044;-59
2022/04/19 02:04:04;;;;;;;12.80;7.65;;;7.00;99.90;;;;;;5035798;28;20037;-58
2022/04/19 02:06:30;;;;;;;15.57;8.75;;;7.10;99.90;;;;;;5032687;28;20022;-59
2022/04/19 02:08:57;;;;;;;16.48;8.70;;;7.30;99.90;;;;;;5038938;28;20064;-59
2022/04/19 02:11:24;;;;;;;13.73;8.63;;;7.30;99.90;;;;;;5036835;28;20028;-59
2022/04/19 02:13:51;;;;;;;17.73;8.48;;;7.40;99.90;;;;;;5036023;28;20132;-59
2022/04/19 02:16:17;;;;;;;17.13;8.18;;;7.40;99.90;;;;;;5037169;28;20024;-59
2022/04/19 02:18:43;;;;;;;13.00;7.63;;;7.50;99.90;;;;;;5034023;28;20041;-59
2022/04/19 02:21:09;;;;;;;16.45;7.78;;;7.60;99.90;;;;;;5037181;28;20021;-59
2022/04/19 02:23:35;;;;;;;15.75;7.78;;;7.70;99.90;;;;;;5036537;28;20029;-59
2022/04/19 02:26:02;;;;;;;16.73;7.30;;;7.70;99.90;;;;;;5036628;28;20079;-59
2022/04/19 02:28:28;;;;;;;15.35;7.40;;;7.80;99.90;;;;;;5036860;28;20037;-59
2022/04/19 02:30:55;;;;;;;13.80;7.65;;;7.80;99.90;;;;;;5035556;28;20051;-59
2022/04/19 02:33:21;;;;;;;14.73;7.47;;;7.80;99.90;;;;;;5034027;28;20036;-58
2022/04/19 02:35:47;;;;;;;12.65;7.22;;;7.90;99.90;;;;;;5038812;28;20025;-58
2022/04/19 02:38:13;;;;;;;15.80;7.05;;;7.90;99.90;;;;;;5036513;28;20137;-59
2022/04/19 02:40:39;;;;;;;17.77;8.13;;;8.00;99.90;;;;;;5035551;28;20025;-59
2022/04/19 02:43:05;;;;;;;17.50;7.53;;;8.10;99.90;;;;;;5033992;28;20521;-59
2022/04/19 02:45:31;;;;;;;18.90;7.97;;;8.20;99.90;;;;;;5015398;28;20123;-59
2022/04/19 02:48:08;;;;;;;16.50;8.10;;;8.30;99.90;;;;;;5036890;28;20104;-59
2022/04/19 02:50:41;;;;;;;19.52;7.65;;;8.30;99.90;;;;;;5035947;28;20119;-59
2022/04/19 02:53:07;;;;;;;21.55;8.88;;;8.40;99.90;;;;;;5036493;28;20525;-59
2022/04/19 02:55:32;;;;;;;16.83;7.65;;;8.40;99.90;;;;;;5036284;28;20053;-59
2022/04/19 02:57:58;;;;;;;22.40;7.70;;;8.50;99.90;;;;;;5035668;28;20441;-59
2022/04/19 03:00:24;;;;;;;20.35;8.35;;;8.50;99.90;;;;;;5032887;28;20037;-59
2022/04/19 03:02:51;;;;;;;20.23;7.72;;;8.50;99.90;;;;;;5037119;28;20446;-58
2022/04/19 03:05:18;;;;;;;22.25;8.02;;;8.60;99.90;;;;;;5036141;28;20049;-59
2022/04/19 03:07:44;;;;;;;21.45;7.90;;;8.60;99.90;;;;;;5036129;28;20025;-60
2022/04/19 03:10:10;;;;;;;16.05;7.10;;;8.60;99.90;;;;;;5035771;28;20029;-59
2022/04/19 03:12:35;;;;;;;18.25;7.10;;;8.70;99.90;;;;;;5030701;28;20398;-59
2022/04/19 03:15:01;;;;;;;18.45;7.53;;;8.70;99.90;;;;;;5038306;28;20029;-59
2022/04/19 03:17:27;;;;;;;24.33;7.45;;;8.70;99.90;;;;;;5034690;28;20059;-59
2022/04/19 03:19:53;;;;;;;22.08;7.95;;;8.70;99.90;;;;;;5036081;28;20168;-59
2022/04/19 03:22:19;;;;;;;21.17;6.65;;;8.70;99.90;;;;;;5034485;28;20060;-59
2022/04/19 03:27:41;;;;;;;21.30;6.65;;;8.70;99.90;;;;;;5032030;28;20079;-59
2022/04/19 03:30:09;;;;;;;22.35;7.03;;;8.70;99.90;;;;;;5045856;28;20036;-59
2022/04/19 03:32:36;;;;;;;21.33;7.63;;;8.80;99.90;;;;;;5036311;28;20025;-59
2022/04/19 03:35:02;;;;;;;13.93;6.57;;;8.70;99.90;;;;;;5035696;28;20443;-59
2022/04/19 03:37:30;;;;;;;17.17;6.93;;;8.50;99.90;;;;;;5035542;28;20101;-59
2022/04/19 03:39:56;;;;;;;18.00;7.05;;;8.40;99.90;;;;;;5032452;28;20032;-58
2022/04/19 03:42:22;;;;;;;23.38;7.22;;;8.30;99.90;;;;;;5032602;28;20383;-59
2022/04/19 03:44:48;;;;;;;23.35;7.03;;;8.30;99.90;;;;;;5037396;28;20041;-60
2022/04/19 03:47:15;;;;;;;16.90;6.88;;;8.40;99.90;;;;;;5035778;28;20025;-59
2022/04/19 03:49:42;;;;;;;22.52;7.13;;;8.40;99.90;;;;;;5035081;28;20045;-59
2022/04/19 03:52:08;;;;;;;21.48;7.65;;;8.50;99.90;;;;;;5034823;28;20020;-59
2022/04/19 03:54:34;;;;;;;22.52;7.75;;;8.40;99.90;;;;;;5031095;28;20026;-59
2022/04/19 03:57:06;;;;;;;19.35;7.15;;;8.30;99.90;;;;;;5044703;28;20108;-59
2022/04/19 03:59:33;;;;;;;19.80;7.60;;;8.30;99.90;;;;;;5034511;28;20096;-59
2022/04/19 04:01:59;;;;;;;25.90;7.28;;;8.40;99.90;;;;;;5034070;28;20474;-59
2022/04/19 04:04:30;;;;;;;19.63;8.35;;;8.40;99.90;;;;;;5033458;28;20115;-60
2022/04/19 04:07:00;;;;;;;21.95;8.68;;;8.40;99.90;;;;;;5033528;28;20014;-59
2022/04/19 04:09:26;;;;;;;22.63;8.30;;;8.30;99.90;;;;;;5031466;28;20172;-60
2022/04/19 04:11:52;;;;;;;23.75;7.75;;;8.20;99.90;;;;;;5036881;28;20394;-58
2022/04/19 04:14:18;;;;;;;20.98;7.63;;;8.10;99.90;;;;;;5035140;28;20410;-59
2022/04/19 04:16:43;;;;;;;20.92;7.45;;;7.90;99.90;;;;;;5035016;28;20025;-59
2022/04/19 04:19:09;;;;;;;18.80;9.00;;;8.00;99.90;;;;;;5034845;28;20025;-59
2022/04/19 04:21:35;;;;;;;21.48;7.82;;;7.90;99.90;;;;;;5030500;28;20086;-59
2022/04/19 04:24:00;;;;;;;20.02;8.13;;;7.80;99.90;;;;;;5036509;28;20021;-59
2022/04/19 04:26:26;;;;;;;19.33;8.70;;;7.50;99.90;;;;;;5034714;28;20540;-57
2022/04/19 04:28:52;;;;;;;22.95;7.72;;;7.40;99.90;;;;;;5034743;28;20036;-59
2022/04/19 04:31:18;;;;;;;28.77;8.40;;;7.30;99.90;;;;;;5034985;28;20021;-59
2022/04/19 04:33:43;;;;;;;24.55;8.02;;;7.30;99.90;;;;;;5031707;28;20506;-59
2022/04/19 04:36:10;;;;;;;20.02;7.22;;;7.20;99.90;;;;;;5034010;28;20025;-60
2022/04/19 04:38:36;;;;;;;16.83;7.32;;;7.20;99.90;;;;;;5035509;28;20049;-59
2022/04/19 04:41:01;;;;;;;18.83;7.07;;;7.20;99.90;;;;;;5033459;28;20471;-59
2022/04/19 04:43:27;;;;;;;24.45;7.70;;;7.20;99.90;;;;;;5033019;28;20106;-59
2022/04/19 04:51:21;;;;;;;21.13;7.93;;;7.00;99.90;;;;;;5031152;28;19917;-59
2022/04/19 04:53:46;;;;;;;22.95;7.95;;;6.90;99.90;;;;;;5036804;28;20498;-59
2022/04/19 04:56:12;;;;;;;26.70;9.80;;;6.90;99.90;;;;;;5034494;28;20036;-59
2022/04/19 04:58:38;;;;;;;17.50;7.50;;;7.10;99.90;;;;;;5032961;28;20037;-59
2022/04/19 05:01:03;;;;;;;20.92;8.65;;;7.20;99.90;;;;;;5034586;28;20071;-59
2022/04/19 05:03:29;;;;;;;21.10;8.50;;;7.30;99.90;;;;;;5029558;28;20042;-59
2022/04/19 05:05:56;;;;;;;18.27;7.90;;;7.30;99.90;;;;;;5035958;28;20029;-58
2022/04/19 05:08:22;;;;;;;19.55;8.52;;;7.20;99.90;;;;;;5034311;28;20045;-59
2022/04/19 05:10:48;;;;;;;21.70;8.77;;;7.30;99.90;;;;;;5032825;28;20126;-59
2022/04/19 05:13:14;;;;;;;21.05;9.15;;;7.40;99.90;;;;;;5034413;28;20033;-59
2022/04/19 05:15:39;;;;;;;20.17;9.18;;;7.60;99.90;;;;;;5030931;28;20025;-60
2022/04/19 05:18:05;;;;;;;18.35;8.38;;;7.70;99.90;;;;;;5034811;28;20033;-59
2022/04/19 05:20:31;;;;;;;27.00;8.27;;;7.80;99.90;;;;;;5032744;28;20075;-59
2022/04/19 05:22:57;;;;;;;26.05;8.00;;;7.80;99.90;;;;;;5032579;28;20033;-59
2022/04/19 05:25:22;;;;;;;18.67;7.55;;;7.80;99.90;;;;;;5034455;28;20021;-59
2022/04/19 05:27:48;;;;;;;21.33;7.50;;;7.80;99.90;;;;;;5031559;28;20037;-59
2022/04/19 05:30:14;;;;;;;22.63;7.70;;;7.80;99.90;;;;;;5032784;28;20036;-60
2022/04/19 05:32:40;;;;;;;16.65;7.43;;;7.70;99.90;;;;;;5035445;28;20474;-59
2022/04/19 05:35:06;;;;;;;20.92;7.85;;;7.60;99.90;;;;;;5033736;28;20036;-59
2022/04/19 05:37:35;;;;;;;22.02;8.15;;;7.60;99.90;;;;;;5032308;28;20410;-58
2022/04/19 05:40:01;;;;;;;25.10;8.02;;;7.60;99.90;;;;;;5032973;28;20040;-60
2022/04/19 05:42:26;;;;;;;21.73;8.45;;;7.60;99.90;;;;;;5029070;28;20029;-60
2022/04/19 05:44:52;;;;;;;27.98;8.95;;;7.70;99.90;;;;;;5035663;28;20034;-59
2022/04/19 05:47:18;;;;;;;24.55;9.13;;;7.80;99.90;;;;;;5033605;28;20451;-60
2022/04/19 05:49:43;;;;;;;24.25;9.45;;;8.00;99.90;;;;;;5033550;28;20044;-60
2022/04/19 05:52:09;;;;;;;27.85;10.05;;;8.00;99.90;;;;;;5033638;28;20081;-60
2022/04/19 05:54:35;;;;;;;30.58;14.48;;;8.00;99.90;;;;;;5029809;28;20029;-60
2022/04/19 05:57:00;;;;;;;25.48;11.73;;;8.10;99.90;;;;;;5035921;28;20022;-60
2022/04/19 05:59:26;;;;;;;25.40;11.30;;;8.10;99.90;;;;;;5032727;28;20613;-60
2022/04/19 06:04:54;;;;;;;25.73;12.52;;;8.40;99.90;;;;;;5033642;28;20086;-59
2022/04/19 06:07:24;;;;;;;36.58;15.75;;;8.50;99.90;;;;;;5033671;28;20029;-59
2022/04/19 06:09:50;;;;;;;35.47;17.08;;;8.50;99.90;;;;;;5031555;28;20029;-59
2022/04/19 06:12:16;;;;;;;31.13;17.55;;;8.60;99.90;;;;;;5031871;28;20021;-60
2022/04/19 06:14:41;;;;;;;27.10;14.48;;;8.70;99.90;;;;;;5035327;28;20406;-59
2022/04/19 06:17:07;;;;;;;29.35;13.43;;;8.70;99.90;;;;;;5034633;28;20026;-59
2022/04/19 06:19:33;;;;;;;23.65;11.10;;;8.80;99.90;;;;;;5037142;28;20043;-59
2022/04/19 06:21:59;;;;;;;25.15;11.25;;;8.90;99.90;;;;;;5036530;28;20071;-59
2022/04/19 06:24:25;;;;;;;19.90;10.68;;;8.90;99.90;;;;;;5033355;28;20115;-60
2022/04/19 06:26:51;;;;;;;20.45;9.68;;;9.10;99.90;;;;;;5038606;28;20021;-60
2022/04/19 06:29:17;;;;;;;24.17;10.13;;;9.50;99.90;;;;;;5036723;28;20045;-60
2022/04/19 06:31:46;;;;;;;22.67;9.63;;;9.80;99.90;;;;;;5036244;28;20041;-59
2022/04/19 06:34:12;;;;;;;23.83;9.30;;;10.40;99.90;;;;;;5036562;28;20120;-59
2022/04/19 06:36:38;;;;;;;19.55;7.55;;;11.80;99.90;;;;;;5031598;28;20109;-58
2022/04/19 06:39:04;;;;;;;19.20;6.70;;;12.90;99.90;;;;;;5036567;28;20372;-59
2022/04/19 06:41:30;;;;;;;16.58;6.07;;;13.30;99.90;;;;;;5035482;28;20030;-59
2022/04/19 06:43:59;;;;;;;27.45;13.80;;;12.70;99.90;;;;;;5031150;28;20453;-59
2022/04/19 06:46:25;;;;;;;29.50;12.55;;;13.30;99.90;;;;;;5036425;28;20083;-60
2022/04/19 06:48:54;;;;;;;42.80;21.92;;;13.30;99.90;;;;;;5034927;28;20503;-60
2022/04/19 06:51:23;;;;;;;34.35;15.32;;;14.10;99.90;;;;;;5036192;28;20511;-60
2022/04/19 06:53:49;;;;;;;24.35;11.05;;;15.50;99.90;;;;;;5041642;28;20029;-60
2022/04/19 06:56:21;;;;;;;16.63;5.35;;;17.60;99.90;;;;;;5035046;28;20032;-60
2022/04/19 06:58:49;;;;;;;15.40;5.65;;;17.40;99.90;;;;;;5036484;28;20102;-59
2022/04/19 07:01:15;;;;;;;11.40;5.10;;;17.40;99.90;;;;;;5035617;28;20048;-60
2022/04/19 07:03:40;;;;;;;13.88;4.95;;;17.70;99.90;;;;;;5032770;28;20502;-60
2022/04/19 07:06:06;;;;;;;12.25;4.97;;;17.20;99.90;;;;;;5036482;28;20494;-60
2022/04/19 07:08:32;;;;;;;18.48;5.10;;;15.40;99.90;;;;;;5036340;28;20052;-60
2022/04/19 07:11:00;;;;;;;12.00;4.22;;;14.50;99.90;;;;;;5035896;28;20085;-60
2022/04/19 07:13:26;;;;;;;14.35;4.70;;;14.30;99.90;;;;;;5036216;28;20436;-60
2022/04/19 07:15:53;;;;;;;13.35;4.22;;;15.10;99.90;;;;;;5032386;28;20036;-59
2022/04/19 07:18:22;;;;;;;18.83;5.03;;;14.60;99.90;;;;;;5033869;28;20087;-60
2022/04/19 07:29:02;;;;;;;12.48;4.50;;;13.10;99.90;;;;;;5035765;28;20097;-59
2022/04/19 07:31:28;;;;;;;15.65;4.57;;;13.00;99.90;;;;;;5035298;28;20030;-58
2022/04/19 07:33:54;;;;;;;15.30;4.97;;;13.00;99.90;;;;;;5034107;28;20425;-60
2022/04/19 07:36:20;;;;;;;20.05;5.45;;;12.70;99.90;;;;;;5032851;28;20387;-58
2022/04/19 07:38:46;;;;;;;19.77;5.28;;;12.60;99.90;;;;;;5037241;28;20154;-59
2022/04/19 07:41:12;;;;;;;19.20;5.25;;;12.60;99.90;;;;;;5035374;28;20030;-58
2022/04/19 07:43:38;;;;;;;17.52;5.20;;;12.90;99.90;;;;;;5035575;28;20033;-59
2022/04/19 07:46:07;;;;;;;18.40;5.13;;;12.80;99.90;;;;;;5034450;28;20374;-59
2022/04/19 07:48:33;;;;;;;20.05;5.65;;;12.60;99.90;;;;;;5015297;28;20038;-59
2022/04/19 07:50:58;;;;;;;17.80;5.88;;;12.50;99.90;;;;;;5037516;28;20095;-58
2022/04/19 07:53:24;;;;;;;23.60;5.57;;;12.50;99.90;;;;;;5034963;28;20680;-59
2022/04/19 07:55:50;;;;;;;19.20;5.50;;;12.50;99.90;;;;;;5033820;28;20544;-59
2022/04/19 07:58:15;;;;;;;14.93;5.03;;;12.60;99.90;;;;;;5033837;28;20026;-60
2022/04/19 08:00:42;;;;;;;15.93;4.40;;;12.70;99.90;;;;;;5031486;28;20021;-60
2022/04/19 08:03:08;;;;;;;21.58;5.65;;;12.60;99.90;;;;;;5034994;28;20039;-60
2022/04/19 08:05:33;;;;;;;24.60;5.50;;;12.70;99.90;;;;;;5035064;28;20025;-59
2022/04/19 08:07:59;;;;;;;24.90;5.55;;;12.80;99.90;;;;;;5034855;28;20493;-60
2022/04/19 08:10:25;;;;;;;23.55;5.20;;;12.80;99.90;;;;;;5034761;28;20021;-60
2022/04/19 08:12:51;;;;;;;18.17;5.35;;;12.80;99.90;;;;;;5031472;28;20026;-60
2022/04/19 08:15:16;;;;;;;22.13;5.47;;;12.80;99.90;;;;;;5032537;28;20104;-60
2022/04/19 08:17:42;;;;;;;18.48;5.40;;;12.80;99.90;;;;;;5036444;28;20509;-60
2022/04/19 08:20:08;;;;;;;18.02;6.05;;;12.90;99.90;;;;;;5034947;28;20503;-60
2022/04/19 08:22:35;;;;;;;23.33;5.57;;;12.90;99.90;;;;;;5034614;28;20042;-60
2022/04/19 08:25:02;;;;;;;19.58;6.38;;;13.00;99.90;;;;;;5032373;28;20052;-58
2022/04/19 08:27:27;;;;;;;16.48;5.53;;;13.20;99.90;;;;;;5030977;28;20044;-60
2022/04/19 08:29:53;;;;;;;14.70;5.30;;;13.40;99.90;;;;;;5035338;28;20033;-60
2022/04/19 08:32:19;;;;;;;23.20;6.03;;;13.10;99.90;;;;;;5034341;28;20037;-60
2022/04/19 08:34:45;;;;;;;22.85;6.18;;;13.10;99.90;;;;;;5032251;28;20033;-60
2022/04/19 08:37:11;;;;;;;20.33;5.95;;;12.90;99.90;;;;;;5032139;28;20045;-59
2022/04/19 08:39:37;;;;;;;18.33;5.63;;;13.10;99.90;;;;;;5029219;28;20037;-60
2022/04/19 08:42:05;;;;;;;21.80;6.30;;;13.20;99.90;;;;;;5035332;28;20402;-60
2022/04/19 08:44:30;;;;;;;18.50;5.63;;;13.30;99.90;;;;;;5034854;28;20033;-60
2022/04/19 08:46:57;;;;;;;19.20;5.15;;;13.30;99.90;;;;;;5034304;28;20040;-60
2022/04/19 08:49:25;;;;;;;20.58;5.72;;;13.20;99.90;;;;;;5033951;28;20130;-60
2022/04/19 08:51:50;;;;;;;22.95;5.93;;;13.20;99.90;;;;;;5031101;28;20565;-58
2022/04/19 08:59:45;;;;;;;20.67;7.18;;;13.30;99.90;;;;;;5030210;28;20044;-59
2022/04/19 09:02:22;;;;;;;23.80;8.55;;;13.30;99.90;;;;;;5033021;28;20029;-59
2022/04/19 09:04:52;;;;;;;23.27;6.38;;;13.40;99.90;;;;;;5032186;28;20033;-60
2022/04/19 09:07:18;;;;;;;19.95;7.00;;;13.50;99.90;;;;;;5034254;28;20114;-60
2022/04/19 09:09:59;;;;;;;18.27;5.88;;;13.40;99.90;;;;;;5030776;28;20041;-59
2022/04/19 09:12:25;;;;;;;16.25;6.43;;;13.30;99.90;;;;;;5030409;28;20387;-60
2022/04/19 09:14:58;;;;;;;21.25;6.20;;;13.60;99.90;;;;;;5036129;28;20426;-59
2022/04/19 09:17:40;;;;;;;20.98;5.60;;;13.80;99.90;;;;;;5023208;28;20025;-59
2022/04/19 09:20:21;;;;;;;21.50;6.18;;;14.10;99.90;;;;;;5026586;28;20060;-60
2022/04/19 09:22:51;;;;;;;16.48;5.50;;;14.30;99.90;;;;;;5021755;28;20034;-60
2022/04/19 09:25:19;;;;;;;18.15;6.25;;;14.50;99.90;;;;;;5015876;28;20025;-60
2022/04/19 09:27:49;;;;;;;18.75;5.88;;;14.70;99.90;;;;;;5013156;28;20398;-60
2022/04/19 09:30:21;;;;;;;21.35;6.30;;;14.70;99.90;;;;;;5013534;28;20034;-60
2022/04/19 09:33:22;;;;;;;17.65;5.10;;;14.90;99.90;;;;;;5015872;28;20041;-60
2022/04/19 09:35:55;;;;;;;18.35;5.35;;;14.80;99.90;;;;;;4987932;28;20033;-60
2022/04/19 09:38:47;;;;;;;14.88;4.20;;;14.80;99.90;;;;;;4988328;28;20054;-60
2022/04/19 09:41:28;;;;;;;14.02;3.78;;;15.10;99.90;;;;;;4987769;28;20026;-59
2022/04/19 09:44:12;;;;;;;17.83;4.22;;;15.60;99.90;;;;;;4987772;28;20042;-59
2022/04/19 09:46:38;;;;;;;14.85;3.80;;;15.20;99.90;;;;;;4981013;28;20022;-59
2022/04/19 09:49:05;;;;;;;15.63;4.70;;;15.00;99.90;;;;;;4985949;28;20039;-60
2022/04/19 09:51:32;;;;;;;12.77;3.50;;;15.20;99.90;;;;;;4988533;28;20038;-60
2022/04/19 09:53:58;;;;;;;11.07;3.75;;;15.40;99.90;;;;;;4998235;28;20484;-60
2022/04/19 09:56:23;;;;;;;12.57;3.70;;;15.60;99.90;;;;;;4986335;28;20034;-60
2022/04/19 09:58:51;;;;;;;14.82;4.55;;;15.80;99.90;;;;;;4986474;28;20101;-60
2022/04/19 10:09:35;;;;;;;10.25;3.30;;;16.40;99.90;;;;;;5004816;28;20053;-61
2022/04/19 10:12:03;;;;;;;11.38;3.35;;;16.20;99.90;;;;;;5017303;28;20029;-61
2022/04/19 10:14:30;;;;;;;11.90;3.10;;;16.60;99.90;;;;;;5021030;28;20494;-61
2022/04/19 10:16:58;;;;;;;9.40;3.92;;;16.90;99.90;;;;;;5018485;28;20038;-61
2022/04/19 10:19:25;;;;;;;13.18;4.20;;;16.70;99.90;;;;;;5019408;28;20030;-61
2022/04/19 10:21:52;;;;;;;13.88;4.50;;;16.00;99.90;;;;;;5015719;28;20026;-62
2022/04/19 10:24:19;;;;;;;14.55;4.63;;;16.00;99.90;;;;;;5016729;28;20411;-60
2022/04/19 10:26:51;;;;;;;10.20;4.35;;;15.90;99.90;;;;;;5019197;28;20030;-61
2022/04/19 10:29:25;;;;;;;10.90;4.38;;;16.10;99.90;;;;;;5018960;28;20041;-61
2022/04/19 10:32:02;;;;;;;14.60;5.18;;;15.70;99.90;;;;;;5018900;28;20030;-61
2022/04/19 10:34:36;;;;;;;13.02;4.65;;;15.80;99.90;;;;;;5018780;28;20042;-61
2022/04/19 10:37:23;;;;;;;12.80;4.82;;;15.30;99.90;;;;;;5021889;28;20045;-59
2022/04/19 10:39:50;;;;;;;8.93;4.03;;;15.60;99.90;;;;;;5020113;28;20663;-60
2022/04/19 10:42:37;;;;;;;10.88;4.10;;;15.70;99.90;;;;;;5035333;28;20039;-60
2022/04/19 10:45:15;;;;;;;12.73;4.00;;;15.80;99.90;;;;;;5045952;28;20024;-60
2022/04/19 10:48:04;;;;;;;9.63;3.75;;;15.40;99.90;;;;;;5036200;28;20040;-60
2022/04/19 10:50:40;;;;;;;13.50;4.40;;;15.50;99.90;;;;;;5032896;28;20041;-60
2022/04/19 10:53:12;;;;;;;12.77;4.18;;;15.30;99.90;;;;;;5036151;28;20437;-60
2022/04/19 10:55:53;;;;;;;10.43;3.87;;;15.20;99.90;;;;;;5035893;28;20036;-60
2022/04/19 10:58:20;;;;;;;12.80;4.60;;;15.20;99.90;;;;;;5036195;28;20457;-59
2022/04/19 11:00:55;;;;;;;10.38;4.55;;;15.10;99.90;;;;;;5032841;28;20038;-61
2022/04/19 11:03:29;;;;;;;13.55;5.13;;;15.00;99.90;;;;;;5033406;28;20025;-61
2022/04/19 11:05:55;;;;;;;11.68;4.20;;;14.80;99.90;;;;;;5038080;28;20025;-61
2022/04/19 11:08:26;;;;;;;12.40;3.80;;;14.50;99.90;;;;;;5035808;28;20034;-61
2022/04/19 11:11:21;;;;;;;8.07;3.42;;;14.60;99.90;;;;;;5034615;28;20549;-60
2022/04/19 11:14:12;;;;;;;;;;;14.60;99.90;;;;;;5034554;28;20079;-60
2022/04/19 11:16:38;;;;;;;9.85;3.25;;;14.50;99.90;;;;;;5034286;28;20445;-61
2022/04/19 11:19:14;;;;;;;11.55;3.63;;;14.20;99.90;;;;;;5034381;28;20061;-61
2022/04/19 11:21:54;;;;;;;10.25;3.78;;;14.30;99.90;;;;;;5030992;28;20045;-61
2022/04/19 11:24:57;;;;;;;11.23;4.28;;;14.10;99.90;;;;;;5032422;28;20068;-61
2022/04/19 11:27:23;;;;;;;9.27;3.50;;;14.20;99.90;;;;;;5045558;28;20120;-61
2022/04/19 11:29:50;;;;;;;12.00;3.80;;;13.90;99.90;;;;;;5035246;28;20592;-61
2022/04/19 11:32:24;;;;;;;10.38;3.80;;;13.80;99.90;;;;;;5034842;28;20034;-61
2022/04/19 11:35:01;;;;;;;9.63;3.90;;;13.90;99.90;;;;;;5034512;28;20037;-61
2022/04/19 11:37:29;;;;;;;14.45;5.18;;;13.80;99.90;;;;;;5034142;28;20053;-61
2022/04/19 11:48:27;;;;;;;9.00;4.05;;;13.80;99.90;;;;;;5045390;28;20434;-60
2022/04/19 11:50:53;;;;;;;13.93;4.30;;;13.90;99.90;;;;;;5034697;28;20455;-59
2022/04/19 11:53:24;;;;;;;12.35;5.05;;;14.00;99.90;;;;;;5035065;28;20049;-60
2022/04/19 11:55:52;;;;;;;9.98;4.50;;;13.90;99.90;;;;;;5034744;28;20030;-60
2022/04/19 11:58:21;;;;;;;12.82;5.55;;;13.80;99.90;;;;;;5035466;28;20466;-60
2022/04/19 12:01:01;;;;;;;12.13;5.40;;;13.60;99.90;;;;;;5032244;28;20113;-59
2022/04/19 12:03:28;;;;;;;15.30;8.68;;;13.50;99.90;;;;;;5031534;28;20018;-60
2022/04/19 12:05:55;;;;;;;12.43;4.78;;;13.40;99.90;;;;;;5036537;28;20068;-59
2022/04/19 12:08:34;;;;;;;12.35;5.32;;;13.40;99.90;;;;;;5033903;28;20460;-59
2022/04/19 12:11:02;;;;;;;11.00;4.80;;;13.50;99.90;;;;;;5034893;28;20415;-60
2022/04/19 12:13:28;;;;;;;12.73;4.53;;;13.60;99.90;;;;;;5032800;28;20092;-59
2022/04/19 12:15:54;;;;;;;10.55;4.53;;;13.40;99.90;;;;;;5033348;28;20030;-60
2022/04/19 12:18:31;;;;;;;11.25;4.38;;;13.50;99.90;;;;;;5031637;28;20033;-60
2022/04/19 12:20:56;;;;;;;8.43;4.22;;;13.40;99.90;;;;;;5034451;28;20079;-60
2022/04/19 12:23:23;;;;;;;9.20;4.53;;;13.40;99.90;;;;;;5029514;28;20037;-59
2022/04/19 12:26:06;;;;;;;12.18;5.53;;;13.30;99.90;;;;;;5032425;28;20041;-59
2022/04/19 12:28:44;;;;;;;11.65;4.78;;;13.40;99.90;;;;;;5029681;28;20029;-61
2022/04/19 12:31:33;;;;;;;11.13;5.20;;;13.40;99.90;;;;;;5029823;28;20036;-61
2022/04/19 12:34:03;;;;;;;10.85;5.35;;;13.30;99.90;;;;;;5028403;28;20366;-60
2022/04/19 12:36:40;;;;;;;14.00;6.35;;;13.50;99.90;;;;;;5031775;28;20025;-60
2022/04/19 12:39:07;;;;;;;12.90;6.28;;;13.40;99.90;;;;;;5032908;28;20041;-61
2022/04/19 12:41:43;;;;;;;10.93;5.90;;;13.50;99.90;;;;;;5033123;28;20025;-61
2022/04/19 12:44:13;;;;;;;13.65;5.50;;;13.60;99.90;;;;;;5029609;28;20075;-60
2022/04/19 12:46:50;;;;;;;10.27;5.20;;;13.50;99.90;;;;;;5030072;28;20618;-60
2022/04/19 12:49:30;;;;;;;11.57;5.88;;;13.50;99.90;;;;;;5029721;28;20403;-60
2022/04/19 12:52:07;;;;;;;10.30;6.50;;;13.50;99.90;;;;;;5030291;28;20033;-60
2022/04/19 12:54:44;;;;;;;11.95;5.97;;;13.50;99.90;;;;;;5029323;28;20072;-60
2022/04/19 12:57:15;;;;;;;12.95;6.93;;;13.60;99.90;;;;;;5030171;28;20034;-61
2022/04/19 12:59:43;;;;;;;11.55;7.10;;;13.70;99.90;;;;;;5035774;28;20088;-61
2022/04/19 13:02:10;;;;;;;12.93;7.53;;;13.90;99.90;;;;;;5034151;28;20049;-61
2022/04/19 13:04:36;;;;;;;14.52;8.45;;;14.00;99.90;;;;;;5033773;28;20109;-60
2022/04/19 13:12:31;;;;;;;15.60;9.02;;;14.10;99.90;;;;;;5030523;28;20390;-61
2022/04/19 13:14:58;;;;;;;11.57;7.57;;;13.80;99.90;;;;;;5036027;28;20022;-61
2022/04/19 13:17:26;;;;;;;10.48;6.57;;;14.10;99.90;;;;;;5033912;28;20026;-61
2022/04/19 13:19:51;;;;;;;10.60;6.75;;;14.30;99.90;;;;;;5033947;28;20061;-61
2022/04/19 13:22:17;;;;;;;10.88;6.65;;;14.30;99.90;;;;;;5034202;28;20067;-61
2022/04/19 13:24:43;;;;;;;11.98;7.05;;;14.30;99.90;;;;;;5030544;28;20021;-61
2022/04/19 13:27:11;;;;;;;12.40;6.93;;;14.40;99.90;;;;;;5038642;28;20485;-61
2022/04/19 13:29:38;;;;;;;8.23;6.00;;;14.00;99.90;;;;;;5038930;28;20071;-61
2022/04/19 13:32:05;;;;;;;8.45;5.90;;;14.20;99.90;;;;;;5037823;28;20566;-60
2022/04/19 13:34:31;;;;;;;7.85;6.03;;;14.30;99.90;;;;;;5037935;28;20048;-60
2022/04/19 13:36:57;;;;;;;8.35;5.38;;;14.20;99.90;;;;;;5036295;28;20068;-61
2022/04/19 13:39:24;;;;;;;6.65;5.00;;;14.20;99.90;;;;;;5034932;28;20036;-60
2022/04/19 13:41:50;;;;;;;6.57;4.63;;;13.90;99.90;;;;;;5040026;28;20091;-60